createdAt,value
2018-03-31T00:02:15.892Z,93722
2018-03-31T00:04:43.251Z,93721
2018-03-31T00:07:10.605Z,93725
2018-03-31T00:09:37.996Z,93721
2018-03-31T00:12:05.366Z,93729
2018-03-31T00:14:32.705Z,93731
2018-03-31T00:17:00.261Z,93732
2018-03-31T00:19:27.598Z,93737
2018-03-31T00:21:55.053Z,93731
2018-03-31T00:24:22.415Z,93730
2018-03-31T00:26:49.799Z,93730
2018-03-31T00:29:17.181Z,93737
2018-03-31T00:31:44.515Z,93725
2018-03-31T00:34:11.918Z,93727
2018-03-31T00:36:39.347Z,93736
2018-03-31T00:39:07.463Z,93719
2018-03-31T00:41:34.811Z,93714
2018-03-31T00:44:02.167Z,93719
2018-03-31T00:46:29.707Z,93723
2018-03-31T00:48:57.067Z,93709
2018-03-31T00:51:24.413Z,93714
2018-03-31T00:53:51.767Z,93719
2018-03-31T00:56:19.136Z,93728
2018-03-31T00:58:46.516Z,93714
2018-03-31T01:01:13.863Z,93721
2018-03-31T01:03:41.219Z,93719
2018-03-31T01:06:08.629Z,93708
2018-03-31T01:08:35.992Z,93715
2018-03-31T01:11:03.367Z,93715
2018-03-31T01:13:30.723Z,93728
2018-03-31T01:15:58.080Z,93721
2018-03-31T01:18:25.418Z,93719
2018-03-31T01:20:52.774Z,93703
2018-03-31T01:23:20.289Z,93708
2018-03-31T01:25:47.623Z,93721
2018-03-31T01:28:14.993Z,93724
2018-03-31T01:30:42.320Z,93712
2018-03-31T01:33:09.779Z,93704
2018-03-31T01:35:37.145Z,93706
2018-03-31T01:38:04.522Z,93717
2018-03-31T01:40:31.874Z,93716
2018-03-31T01:42:59.268Z,93721
2018-03-31T01:45:26.673Z,93723
2018-03-31T01:47:54.039Z,93717
2018-03-31T01:50:22.169Z,93715
2018-03-31T01:52:49.566Z,93721
2018-03-31T01:55:16.920Z,93730
2018-03-31T01:57:44.413Z,93718
2018-03-31T02:00:13.241Z,93721
2018-03-31T02:02:40.617Z,93707
2018-03-31T02:05:07.957Z,93728
2018-03-31T02:07:35.663Z,93718
2018-03-31T02:10:03.765Z,93724
2018-03-31T02:12:31.211Z,93710
2018-03-31T02:14:58.581Z,93721
2018-03-31T02:17:25.941Z,93705
2018-03-31T02:19:53.332Z,93715
2018-03-31T02:22:20.679Z,93709
2018-03-31T02:24:48.026Z,93702
2018-03-31T02:27:15.391Z,93708
2018-03-31T02:29:42.757Z,93700
2018-03-31T02:32:10.183Z,93701
2018-03-31T02:34:37.549Z,93689
2018-03-31T02:37:04.906Z,93674
2018-03-31T02:39:32.272Z,93685
2018-03-31T02:41:59.649Z,93683
2018-03-31T02:44:27.017Z,93681
2018-03-31T02:46:54.352Z,93682
2018-03-31T02:49:21.714Z,93679
2018-03-31T02:51:49.097Z,93688
2018-03-31T02:54:16.473Z,93689
2018-03-31T02:56:43.836Z,93703
2018-03-31T02:59:11.169Z,93694
2018-03-31T03:01:38.525Z,93698
2018-03-31T03:04:05.885Z,93712
2018-03-31T03:06:33.259Z,93708
2018-03-31T03:09:00.623Z,93708
2018-03-31T03:11:28.728Z,93708
2018-03-31T03:13:56.847Z,93720
2018-03-31T03:16:24.195Z,93707
2018-03-31T03:18:51.549Z,93707
2018-03-31T03:21:18.891Z,93699
2018-03-31T03:23:46.256Z,93694
2018-03-31T03:26:13.612Z,93702
2018-03-31T03:28:40.970Z,93699
2018-03-31T03:31:08.324Z,93680
2018-03-31T03:33:35.808Z,93676
2018-03-31T03:36:03.172Z,93677
2018-03-31T03:38:30.528Z,93668
2018-03-31T03:40:57.912Z,93679
2018-03-31T03:43:25.262Z,93681
2018-03-31T03:45:53.389Z,93691
2018-03-31T03:48:20.728Z,93684
2018-03-31T03:50:48.084Z,93698
2018-03-31T03:53:15.453Z,93688
2018-03-31T03:55:42.790Z,93694
2018-03-31T03:58:10.239Z,93686
2018-03-31T04:00:37.603Z,93684
2018-03-31T04:03:05.052Z,93694
2018-03-31T04:05:32.401Z,93686
2018-03-31T04:07:59.788Z,93696
2018-03-31T04:10:27.139Z,93683
2018-03-31T04:12:54.489Z,93688
2018-03-31T04:15:21.841Z,93688
2018-03-31T04:17:49.909Z,93682
2018-03-31T04:20:17.255Z,93684
2018-03-31T04:22:44.603Z,93689
2018-03-31T04:25:12.675Z,93696
2018-03-31T04:27:40.067Z,93690
2018-03-31T04:30:07.459Z,93700
2018-03-31T04:32:34.812Z,93690
2018-03-31T04:35:02.942Z,93691
2018-03-31T04:37:30.729Z,93693
2018-03-31T04:39:58.076Z,93701
2018-03-31T04:42:25.437Z,93705
2018-03-31T04:44:52.781Z,93717
2018-03-31T04:47:20.167Z,93718
2018-03-31T04:49:47.579Z,93725
2018-03-31T04:52:14.964Z,93724
2018-03-31T04:54:42.332Z,93722
2018-03-31T04:57:10.590Z,93720
2018-03-31T04:59:37.968Z,93720
2018-03-31T05:02:05.320Z,93699
2018-03-31T05:04:32.684Z,93696
2018-03-31T05:07:00.181Z,93690
2018-03-31T05:09:27.546Z,93681
2018-03-31T05:11:54.909Z,93673
2018-03-31T05:14:22.290Z,93690
2018-03-31T05:16:49.728Z,93701
2018-03-31T05:19:17.129Z,93698
2018-03-31T05:21:46.215Z,93711
2018-03-31T05:24:13.560Z,93718
2018-03-31T05:26:40.955Z,93714
2018-03-31T05:29:08.296Z,93705
2018-03-31T05:31:35.666Z,93701
2018-03-31T05:34:03.013Z,93703
2018-03-31T05:36:30.435Z,93707
2018-03-31T05:38:57.779Z,93724
2018-03-31T05:41:25.903Z,93730
2018-03-31T05:43:53.257Z,93736
2018-03-31T05:46:20.658Z,93739
2018-03-31T05:48:48.592Z,93747
2018-03-31T05:51:15.943Z,93748
2018-03-31T05:53:43.291Z,93735
2018-03-31T05:56:10.647Z,93739
2018-03-31T05:58:38.006Z,93735
2018-03-31T06:01:06.132Z,93743
2018-03-31T06:03:34.274Z,93725
2018-03-31T06:06:01.657Z,93723
2018-03-31T06:08:29.003Z,93717
2018-03-31T06:10:56.376Z,93721
2018-03-31T06:13:23.727Z,93715
2018-03-31T06:15:51.091Z,93719
2018-03-31T06:18:18.441Z,93728
2018-03-31T06:20:45.941Z,93729
2018-03-31T06:23:14.214Z,93728
2018-03-31T06:25:41.564Z,93737
2018-03-31T06:28:08.920Z,93737
2018-03-31T06:30:36.263Z,93735
2018-03-31T06:33:03.633Z,93735
2018-03-31T06:35:31.007Z,93736
2018-03-31T06:37:58.364Z,93735
2018-03-31T06:40:25.720Z,93722
2018-03-31T06:42:53.114Z,93721
2018-03-31T06:45:20.644Z,93719
2018-03-31T06:47:47.984Z,93730
2018-03-31T06:50:15.333Z,93729
2018-03-31T06:52:42.693Z,93728
2018-03-31T06:55:10.043Z,93736
2018-03-31T06:57:37.432Z,93723
2018-03-31T07:00:04.805Z,93723
2018-03-31T07:02:32.151Z,93727
2018-03-31T07:05:00.405Z,93735
2018-03-31T07:07:28.525Z,93741
2018-03-31T07:09:55.878Z,93742
2018-03-31T07:12:23.250Z,93744
2018-03-31T07:14:50.772Z,93737
2018-03-31T07:17:18.149Z,93741
2018-03-31T07:19:45.483Z,93742
2018-03-31T07:22:12.914Z,93739
2018-03-31T07:24:40.294Z,93730
2018-03-31T07:27:07.694Z,93727
2018-03-31T07:29:35.073Z,93726
2018-03-31T07:32:02.423Z,93726
2018-03-31T07:34:30.004Z,93725
2018-03-31T07:36:57.358Z,93723
2018-03-31T07:39:25.464Z,93723
2018-03-31T07:41:52.824Z,93724
2018-03-31T07:44:20.199Z,93717
2018-03-31T07:46:47.571Z,93721
2018-03-31T07:49:14.926Z,93717
2018-03-31T07:51:42.325Z,93712
2018-03-31T07:54:09.730Z,93709
2018-03-31T07:56:37.267Z,93711
2018-03-31T07:59:04.739Z,93706
2018-03-31T08:01:32.098Z,93716
2018-03-31T08:03:59.457Z,93726
2018-03-31T08:06:27.248Z,93737
2018-03-31T08:08:55.451Z,93732
2018-03-31T08:11:23.053Z,93730
2018-03-31T08:13:50.574Z,93714
2018-03-31T08:16:17.908Z,93723
2018-03-31T08:18:46.072Z,93710
2018-03-31T08:21:13.436Z,93714
2018-03-31T08:23:40.902Z,93708
2018-03-31T08:26:08.246Z,93702
2018-03-31T08:28:35.997Z,93707
2018-03-31T08:31:04.107Z,93702
2018-03-31T08:33:31.558Z,93702
2018-03-31T08:35:58.911Z,93703
2018-03-31T08:38:26.273Z,93699
2018-03-31T08:40:53.687Z,93698
2018-03-31T08:43:21.803Z,93710
2018-03-31T08:45:49.167Z,93705
2018-03-31T08:48:16.516Z,93701
2018-03-31T08:50:43.880Z,93702
2018-03-31T08:53:11.225Z,93694
2018-03-31T08:55:38.723Z,93703
2018-03-31T08:58:06.083Z,93689
2018-03-31T09:00:33.538Z,93682
2018-03-31T09:03:01.833Z,93677
2018-03-31T09:05:29.178Z,93672
2018-03-31T09:07:59.251Z,93675
2018-03-31T09:10:26.621Z,93670
2018-03-31T09:12:54.009Z,93677
2018-03-31T09:15:21.474Z,93675
2018-03-31T09:17:48.848Z,93658
2018-03-31T09:20:16.205Z,93665
2018-03-31T09:22:45.782Z,93677
2018-03-31T09:25:10.979Z,93670
2018-03-31T09:27:38.326Z,93675
2018-03-31T09:30:05.678Z,93672
2018-03-31T09:32:33.152Z,93656
2018-03-31T09:35:08.298Z,93671
2018-03-31T09:37:35.640Z,93671
2018-03-31T09:40:03.024Z,93678
2018-03-31T09:42:30.700Z,93681
2018-03-31T09:44:58.104Z,93682
2018-03-31T09:47:25.461Z,93697
2018-03-31T09:49:52.810Z,93698
2018-03-31T09:52:20.430Z,93693
2018-03-31T09:54:47.784Z,93693
2018-03-31T09:57:15.149Z,93701
2018-03-31T09:59:42.493Z,93697
2018-03-31T10:02:09.884Z,93702
2018-03-31T10:04:37.239Z,93698
2018-03-31T10:07:04.586Z,93690
2018-03-31T10:09:31.960Z,93686
2018-03-31T10:11:59.359Z,93681
2018-03-31T10:14:26.727Z,93687
2018-03-31T10:16:54.226Z,93683
2018-03-31T10:19:21.569Z,93674
2018-03-31T10:21:48.914Z,93675
2018-03-31T10:24:16.291Z,93676
2018-03-31T10:26:43.650Z,93685
2018-03-31T10:29:11.025Z,93677
2018-03-31T10:31:38.419Z,93676
2018-03-31T10:34:05.780Z,93675
2018-03-31T10:36:33.193Z,93666
2018-03-31T10:39:01.349Z,93670
2018-03-31T10:41:28.714Z,93664
2018-03-31T10:43:56.055Z,93657
2018-03-31T10:46:23.444Z,93657
2018-03-31T10:48:50.793Z,93652
2018-03-31T10:51:18.144Z,93649
2018-03-31T10:53:45.601Z,93653
2018-03-31T10:56:12.944Z,93655
2018-03-31T10:58:40.340Z,93654
2018-03-31T11:01:07.709Z,93648
2018-03-31T11:03:35.085Z,93656
2018-03-31T11:06:02.641Z,93647
2018-03-31T11:08:30.016Z,93650
2018-03-31T11:10:57.384Z,93663
2018-03-31T11:13:24.724Z,93659
2018-03-31T11:15:52.103Z,93649
2018-03-31T11:18:19.530Z,93651
2018-03-31T11:20:47.305Z,93655
2018-03-31T11:23:14.665Z,93646
2018-03-31T11:25:42.021Z,93640
2018-03-31T11:28:09.375Z,93648
2018-03-31T11:30:37.488Z,93651
2018-03-31T11:33:05.125Z,93654
2018-03-31T11:35:32.585Z,93650
2018-03-31T11:38:00.029Z,93657
2018-03-31T11:40:28.381Z,93666
2018-03-31T11:42:55.763Z,93655
2018-03-31T11:45:23.117Z,93652
2018-03-31T11:47:50.463Z,93657
2018-03-31T11:50:17.837Z,93654
2018-03-31T11:52:45.202Z,93653
2018-03-31T11:55:12.879Z,93647
2018-03-31T11:57:40.220Z,93630
2018-03-31T12:00:07.717Z,93633
2018-03-31T12:02:35.106Z,93632
2018-03-31T12:05:02.482Z,93622
2018-03-31T12:07:29.957Z,93623
2018-03-31T12:09:57.302Z,93620
2018-03-31T12:12:24.718Z,93619
2018-03-31T12:14:52.072Z,93620
2018-03-31T12:17:19.432Z,93622
2018-03-31T12:19:46.793Z,93614
2018-03-31T12:22:14.929Z,93613
2018-03-31T12:24:42.321Z,93606
2018-03-31T12:27:09.704Z,93611
2018-03-31T12:29:37.039Z,93609
2018-03-31T12:32:04.392Z,93606
2018-03-31T12:34:31.757Z,93602
2018-03-31T12:36:59.106Z,93598
2018-03-31T12:39:26.468Z,93608
2018-03-31T12:41:53.862Z,93603
2018-03-31T12:44:21.223Z,93601
2018-03-31T12:46:48.589Z,93610
2018-03-31T12:49:15.959Z,93604
2018-03-31T12:51:43.315Z,93597
2018-03-31T12:54:11.447Z,93596
2018-03-31T12:56:38.816Z,93596
2018-03-31T12:59:06.174Z,93602
2018-03-31T13:01:33.545Z,93603
2018-03-31T13:04:01.660Z,93597
2018-03-31T13:06:29.017Z,93599
2018-03-31T13:08:56.360Z,93595
2018-03-31T13:11:23.734Z,93602
2018-03-31T13:13:51.099Z,93594
2018-03-31T13:16:18.453Z,93586
2018-03-31T13:18:45.890Z,93586
2018-03-31T13:21:13.246Z,93584
2018-03-31T13:23:40.960Z,93584
2018-03-31T13:26:08.313Z,93588
2018-03-31T13:28:35.689Z,93578
2018-03-31T13:31:03.058Z,93580
2018-03-31T13:33:30.412Z,93581
2018-03-31T13:35:57.855Z,93579
2018-03-31T13:38:25.223Z,93575
2018-03-31T13:40:52.576Z,93577
2018-03-31T13:43:19.954Z,93567
2018-03-31T13:45:47.335Z,93570
2018-03-31T13:48:14.712Z,93563
2018-03-31T13:50:42.072Z,93568
2018-03-31T13:53:09.452Z,93567
2018-03-31T13:55:36.794Z,93568
2018-03-31T13:58:04.932Z,93566
2018-03-31T14:00:32.308Z,93565
2018-03-31T14:02:59.968Z,93571
2018-03-31T14:05:27.314Z,93565
2018-03-31T14:07:54.697Z,93558
2018-03-31T14:10:22.052Z,93553
2018-03-31T14:12:49.419Z,93563
2018-03-31T14:15:16.786Z,93566
2018-03-31T14:17:44.131Z,93567
2018-03-31T14:20:11.531Z,93566
2018-03-31T14:22:38.889Z,93569
2018-03-31T14:25:06.265Z,93560
2018-03-31T14:27:34.457Z,93562
2018-03-31T14:30:01.837Z,93564
2018-03-31T14:32:29.200Z,93563
2018-03-31T14:34:56.562Z,93560
2018-03-31T14:37:23.933Z,93563
2018-03-31T14:39:51.292Z,93559
2018-03-31T14:42:18.757Z,93560
2018-03-31T14:44:46.116Z,93565
2018-03-31T14:47:13.489Z,93564
2018-03-31T14:49:40.917Z,93560
2018-03-31T14:52:08.294Z,93563
2018-03-31T14:54:36.424Z,93560
2018-03-31T14:57:03.771Z,93558
2018-03-31T14:59:31.138Z,93551
2018-03-31T15:01:59.383Z,93558
2018-03-31T15:04:26.763Z,93562
2018-03-31T15:06:54.145Z,93566
2018-03-31T15:09:22.347Z,93559
2018-03-31T15:11:49.746Z,93553
2018-03-31T15:14:17.116Z,93566
2018-03-31T15:16:44.470Z,93556
2018-03-31T15:19:11.816Z,93554
2018-03-31T15:21:39.598Z,93550
2018-03-31T15:24:06.963Z,93556
2018-03-31T15:26:34.316Z,93548
2018-03-31T15:29:02.427Z,93551
2018-03-31T15:31:29.810Z,93546
2018-03-31T15:33:57.169Z,93549
2018-03-31T15:36:24.785Z,93552
2018-03-31T15:38:52.184Z,93543
2018-03-31T15:41:19.563Z,93545
2018-03-31T15:43:47.314Z,93552
2018-03-31T15:46:14.661Z,93551
2018-03-31T15:48:42.084Z,93560
2018-03-31T15:51:09.375Z,93551
2018-03-31T15:53:36.807Z,93546
2018-03-31T15:56:04.165Z,93547
2018-03-31T15:58:31.536Z,93552
2018-03-31T16:00:58.893Z,93562
2018-03-31T16:03:26.255Z,93555
2018-03-31T16:05:53.610Z,93551
2018-03-31T16:08:21.017Z,93563
2018-03-31T16:10:48.395Z,93557
2018-03-31T16:13:15.759Z,93555
2018-03-31T16:15:43.255Z,93561
2018-03-31T16:18:10.609Z,93568
2018-03-31T16:20:37.976Z,93569
2018-03-31T16:23:06.093Z,93563
2018-03-31T16:25:33.432Z,93572
2018-03-31T16:28:00.787Z,93568
2018-03-31T16:30:28.145Z,93575
2018-03-31T16:32:55.506Z,93576
2018-03-31T16:35:22.851Z,93571
2018-03-31T16:37:50.220Z,93572
2018-03-31T16:40:17.570Z,93585
2018-03-31T16:42:44.914Z,93580
2018-03-31T16:45:12.374Z,93585
2018-03-31T16:47:39.712Z,93586
2018-03-31T16:50:07.098Z,93592
2018-03-31T16:52:34.448Z,93591
2018-03-31T16:55:01.826Z,93590
2018-03-31T16:57:29.174Z,93592
2018-03-31T16:59:56.524Z,93589
2018-03-31T17:02:23.888Z,93596
2018-03-31T17:04:51.255Z,93593
2018-03-31T17:07:18.623Z,93598
2018-03-31T17:09:46.135Z,93602
2018-03-31T17:12:13.492Z,93603
2018-03-31T17:14:40.854Z,93609
2018-03-31T17:17:08.222Z,93612
2018-03-31T17:19:35.574Z,93617
2018-03-31T17:22:02.927Z,93616
2018-03-31T17:24:30.291Z,93621
2018-03-31T17:26:57.656Z,93620
2018-03-31T17:29:25.009Z,93618
2018-03-31T17:31:52.444Z,93624
2018-03-31T17:34:19.807Z,93623
2018-03-31T17:36:47.177Z,93639
2018-03-31T17:39:14.516Z,93625
2018-03-31T17:41:41.879Z,93641
2018-03-31T17:44:09.258Z,93644
2018-03-31T17:46:36.630Z,93643
2018-03-31T17:49:04.020Z,93639
2018-03-31T17:51:31.352Z,93650
2018-03-31T17:53:58.688Z,93644
2018-03-31T17:56:26.059Z,93643
2018-03-31T17:58:53.521Z,93644
2018-03-31T18:01:20.904Z,93652
2018-03-31T18:03:48.262Z,93650
2018-03-31T18:06:15.658Z,93654
2018-03-31T18:08:42.994Z,93673
2018-03-31T18:11:10.687Z,93681
2018-03-31T18:13:38.096Z,93678
2018-03-31T18:16:05.442Z,93684
2018-03-31T18:18:32.800Z,93685
2018-03-31T18:21:00.221Z,93694
2018-03-31T18:23:27.594Z,93695
2018-03-31T18:25:54.955Z,93694
2018-03-31T18:28:22.312Z,93698
2018-03-31T18:30:49.674Z,93702
2018-03-31T18:33:17.049Z,93706
2018-03-31T18:35:44.521Z,93713
2018-03-31T18:38:11.855Z,93718
2018-03-31T18:40:39.209Z,93722
2018-03-31T18:43:06.730Z,93723
2018-03-31T18:45:34.324Z,93730
2018-03-31T18:48:01.632Z,93730
2018-03-31T18:50:29.248Z,93735
2018-03-31T18:52:56.650Z,93736
2018-03-31T18:55:24.002Z,93744
2018-03-31T18:57:51.385Z,93743
2018-03-31T19:00:18.739Z,93746
2018-03-31T19:02:46.126Z,93756
2018-03-31T19:05:13.471Z,93750
2018-03-31T19:07:40.826Z,93763
2018-03-31T19:10:08.245Z,93768
2018-03-31T19:12:35.618Z,93762
2018-03-31T19:15:02.990Z,93768
2018-03-31T19:17:30.349Z,93773
2018-03-31T19:19:57.706Z,93777
2018-03-31T19:22:25.045Z,93773
2018-03-31T19:24:57.804Z,93795
2018-03-31T19:27:25.172Z,93796
2018-03-31T19:29:52.534Z,93800
2018-03-31T19:32:19.882Z,93801
2018-03-31T19:34:47.236Z,93810
2018-03-31T19:37:14.601Z,93805
2018-03-31T19:39:47.824Z,93815
2018-03-31T19:42:15.181Z,93821
2018-03-31T19:44:43.285Z,93818
2018-03-31T19:47:10.648Z,93827
2018-03-31T19:49:38.019Z,93823
2018-03-31T19:52:05.393Z,93818
2018-03-31T19:54:32.754Z,93814
2018-03-31T19:57:00.179Z,93830
2018-03-31T19:59:27.527Z,93825
2018-03-31T20:01:54.880Z,93825
2018-03-31T20:04:22.247Z,93834
2018-03-31T20:06:49.587Z,93839
2018-03-31T20:09:16.953Z,93829
2018-03-31T20:11:44.315Z,93844
2018-03-31T20:14:11.671Z,93842
2018-03-31T20:16:39.028Z,93843
2018-03-31T20:19:06.799Z,93839
2018-03-31T20:21:34.155Z,93844
2018-03-31T20:24:01.509Z,93848
2018-03-31T20:26:29.554Z,93852
2018-03-31T20:28:56.931Z,93854
2018-03-31T20:31:24.297Z,93851
2018-03-31T20:33:51.653Z,93863
2018-03-31T20:36:19.019Z,93851
2018-03-31T20:38:46.373Z,93855
2018-03-31T20:41:13.725Z,93853
2018-03-31T20:43:41.188Z,93857
2018-03-31T20:46:08.544Z,93867
2018-03-31T20:48:35.918Z,93870
2018-03-31T20:51:03.258Z,93863
2018-03-31T20:53:30.620Z,93866
2018-03-31T20:55:58.728Z,93874
2018-03-31T20:58:26.094Z,93872
2018-03-31T21:00:53.438Z,93874
2018-03-31T21:03:20.830Z,93884
2018-03-31T21:05:48.238Z,93887
2018-03-31T21:08:15.593Z,93881
2018-03-31T21:10:43.176Z,93893
2018-03-31T21:13:10.534Z,93878
2018-03-31T21:15:37.907Z,93891
2018-03-31T21:18:05.262Z,93883
2018-03-31T21:20:32.624Z,93886
2018-03-31T21:22:59.974Z,93886
2018-03-31T21:25:27.325Z,93900
2018-03-31T21:27:54.685Z,93900
2018-03-31T21:30:22.031Z,93900
2018-03-31T21:32:49.877Z,93898
2018-03-31T21:35:17.236Z,93904
2018-03-31T21:37:44.573Z,93906
2018-03-31T21:40:12.543Z,93902
2018-03-31T21:42:39.905Z,93905
2018-03-31T21:45:07.251Z,93907
2018-03-31T21:47:34.744Z,93896
2018-03-31T21:50:02.385Z,93903
2018-03-31T21:52:29.726Z,93905
2018-03-31T21:54:57.076Z,93896
2018-03-31T21:57:24.409Z,93905
2018-03-31T21:59:51.764Z,93897
2018-03-31T22:02:19.094Z,93910
2018-03-31T22:04:46.462Z,93901
2018-03-31T22:07:14.636Z,93908
2018-03-31T22:09:41.943Z,93911
2018-03-31T22:12:09.298Z,93909
2018-03-31T22:14:42.189Z,93905
2018-03-31T22:17:09.536Z,93909
2018-03-31T22:19:36.892Z,93912
2018-03-31T22:22:04.263Z,93905
2018-03-31T22:24:32.264Z,93915
2018-03-31T22:27:00.390Z,93929
2018-03-31T22:29:27.735Z,93923
2018-03-31T22:31:55.082Z,93926
2018-03-31T22:34:22.441Z,93933
2018-03-31T22:36:49.773Z,93933
2018-03-31T22:39:17.156Z,93942
2018-03-31T22:41:44.510Z,93934
2018-03-31T22:44:11.897Z,93940
2018-03-31T22:46:39.242Z,93937
2018-03-31T22:49:06.669Z,93937
2018-03-31T22:51:34.017Z,93941
2018-03-31T22:54:01.885Z,93938
2018-03-31T22:56:29.245Z,93947
2018-03-31T22:58:56.591Z,93955
2018-03-31T23:01:24.131Z,93943
2018-03-31T23:03:51.419Z,93938
2018-03-31T23:06:18.769Z,93951
2018-03-31T23:08:46.132Z,93956
2018-03-31T23:11:13.511Z,93956
2018-03-31T23:13:40.853Z,93966
2018-03-31T23:16:08.216Z,93960
2018-03-31T23:18:35.593Z,93966
2018-03-31T23:21:02.953Z,93963
2018-03-31T23:23:31.139Z,93958
2018-03-31T23:25:58.607Z,93968
2018-03-31T23:28:25.961Z,93958
2018-03-31T23:30:53.579Z,93974
2018-03-31T23:33:20.936Z,93975
2018-03-31T23:35:48.294Z,93984
2018-03-31T23:38:15.638Z,93983
2018-03-31T23:40:42.988Z,93988
2018-03-31T23:43:10.330Z,93984
2018-03-31T23:45:37.793Z,93989
2018-03-31T23:48:05.154Z,93999
2018-03-31T23:50:32.510Z,93993
2018-03-31T23:52:59.858Z,94000
2018-03-31T23:55:27.210Z,93998
2018-03-31T23:57:54.572Z,93998
